sensor_id;sensor_type;location;lat;lon;timestamp;pressure;altitude;pressure_sealevel;temperature;humidity
7376;BME280;3728;42.266;24.944;2023-05-21T00:02:05;99316.47;;;17.22;100.00
7376;BME280;3728;42.266;24.944;2023-05-21T00:04:37;99311.75;;;17.31;100.00
7376;BME280;3728;42.266;24.944;2023-05-21T00:07:06;99307.06;;;17.43;100.00
7376;BME280;3728;42.266;24.944;2023-05-21T00:09:35;99316.41;;;17.56;100.00
7376;BME280;3728;42.266;24.944;2023-05-21T00:12:05;99314.81;;;17.52;100.00
7376;BME280;3728;42.266;24.944;2023-05-21T00:14:33;99312.63;;;17.38;100.00
7376;BME280;3728;42.266;24.944;2023-05-21T00:17:01;99302.63;;;17.28;100.00
7376;BME280;3728;42.266;24.944;2023-05-21T00:19:28;99297.78;;;17.34;100.00
7376;BME280;3728;42.266;24.944;2023-05-21T00:21:58;99285.59;;;17.29;100.00
7376;BME280;3728;42.266;24.944;2023-05-21T00:24:29;99279.91;;;17.27;100.00
7376;BME280;3728;42.266;24.944;2023-05-21T00:26:57;99288.13;;;17.22;100.00
7376;BME280;3728;42.266;24.944;2023-05-21T00:29:24;99283.72;;;17.10;100.00
7376;BME280;3728;42.266;24.944;2023-05-21T00:31:56;99289.66;;;17.04;100.00
7376;BME280;3728;42.266;24.944;2023-05-21T00:34:23;99275.25;;;17.01;100.00
7376;BME280;3728;42.266;24.944;2023-05-21T00:36:52;99277.19;;;17.04;100.00
7376;BME280;3728;42.266;24.944;2023-05-21T00:39:21;99282.47;;;17.04;100.00
7376;BME280;3728;42.266;24.944;2023-05-21T00:41:49;99286.78;;;16.93;100.00
7376;BME280;3728;42.266;24.944;2023-05-21T00:44:16;99275.38;;;16.89;100.00
7376;BME280;3728;42.266;24.944;2023-05-21T00:46:45;99276.63;;;16.95;100.00
7376;BME280;3728;42.266;24.944;2023-05-21T00:49:14;99282.75;;;16.99;100.00
7376;BME280;3728;42.266;24.944;2023-05-21T00:51:42;99266.47;;;16.97;100.00
7376;BME280;3728;42.266;24.944;2023-05-21T00:54:10;99271.19;;;16.88;100.00
7376;BME280;3728;42.266;24.944;2023-05-21T00:56:38;99271.13;;;16.85;100.00
7376;BME280;3728;42.266;24.944;2023-05-21T00:59:06;99271.41;;;16.99;100.00
7376;BME280;3728;42.266;24.944;2023-05-21T01:01:34;99272.03;;;16.92;100.00
7376;BME280;3728;42.266;24.944;2023-05-21T01:04:02;99277.69;;;16.91;100.00
7376;BME280;3728;42.266;24.944;2023-05-21T01:06:30;99269.25;;;17.04;100.00
7376;BME280;3728;42.266;24.944;2023-05-21T01:09:02;99269.44;;;16.96;100.00
7376;BME280;3728;42.266;24.944;2023-05-21T01:11:39;99265.91;;;16.88;100.00
7376;BME280;3728;42.266;24.944;2023-05-21T01:14:11;99259.44;;;17.05;100.00
7376;BME280;3728;42.266;24.944;2023-05-21T01:16:41;99262.69;;;16.98;100.00
7376;BME280;3728;42.266;24.944;2023-05-21T01:19:20;99260.91;;;17.02;100.00
7376;BME280;3728;42.266;24.944;2023-05-21T01:21:52;99261.56;;;16.80;100.00
7376;BME280;3728;42.266;24.944;2023-05-21T01:24:23;99260.59;;;16.69;100.00
7376;BME280;3728;42.266;24.944;2023-05-21T01:26:53;99250.03;;;16.88;100.00
7376;BME280;3728;42.266;24.944;2023-05-21T01:29:21;99252.34;;;17.09;100.00
7376;BME280;3728;42.266;24.944;2023-05-21T01:37:45;99260.00;;;16.95;100.00
7376;BME280;3728;42.266;24.944;2023-05-21T01:41:11;99265.25;;;16.76;100.00
7376;BME280;3728;42.266;24.944;2023-05-21T01:43:43;99263.56;;;17.02;100.00
7376;BME280;3728;42.266;24.944;2023-05-21T01:46:16;99264.50;;;16.75;100.00
7376;BME280;3728;42.266;24.944;2023-05-21T01:48:47;99260.34;;;16.74;100.00
7376;BME280;3728;42.266;24.944;2023-05-21T01:51:16;99257.19;;;16.88;100.00
7376;BME280;3728;42.266;24.944;2023-05-21T01:53:44;99251.97;;;17.10;100.00
7376;BME280;3728;42.266;24.944;2023-05-21T01:56:13;99254.19;;;16.89;100.00
7376;BME280;3728;42.266;24.944;2023-05-21T01:58:41;99258.09;;;16.76;100.00
7376;BME280;3728;42.266;24.944;2023-05-21T02:01:09;99254.75;;;16.79;100.00
7376;BME280;3728;42.266;24.944;2023-05-21T02:03:37;99251.47;;;16.67;100.00
7376;BME280;3728;42.266;24.944;2023-05-21T02:06:05;99252.50;;;16.62;100.00
7376;BME280;3728;42.266;24.944;2023-05-21T02:08:32;99245.50;;;16.70;100.00
7376;BME280;3728;42.266;24.944;2023-05-21T02:11:00;99248.31;;;16.61;100.00
7376;BME280;3728;42.266;24.944;2023-05-21T02:13:28;99249.97;;;16.50;100.00
7376;BME280;3728;42.266;24.944;2023-05-21T02:15:56;99255.34;;;16.54;100.00
7376;BME280;3728;42.266;24.944;2023-05-21T02:18:23;99252.78;;;16.57;100.00
7376;BME280;3728;42.266;24.944;2023-05-21T02:20:51;99258.13;;;16.61;100.00
7376;BME280;3728;42.266;24.944;2023-05-21T02:23:19;99252.09;;;16.60;100.00
7376;BME280;3728;42.266;24.944;2023-05-21T02:25:47;99248.84;;;16.67;100.00
7376;BME280;3728;42.266;24.944;2023-05-21T02:28:14;99245.94;;;16.56;100.00
7376;BME280;3728;42.266;24.944;2023-05-21T02:30:42;99250.09;;;16.73;100.00
7376;BME280;3728;42.266;24.944;2023-05-21T02:33:09;99247.31;;;16.50;100.00
7376;BME280;3728;42.266;24.944;2023-05-21T02:35:39;99248.41;;;16.49;100.00
7376;BME280;3728;42.266;24.944;2023-05-21T02:38:07;99244.00;;;16.53;100.00
7376;BME280;3728;42.266;24.944;2023-05-21T02:40:36;99244.59;;;16.62;100.00
7376;BME280;3728;42.266;24.944;2023-05-21T02:43:03;99250.22;;;16.45;100.00
7376;BME280;3728;42.266;24.944;2023-05-21T02:45:31;99242.28;;;16.45;100.00
7376;BME280;3728;42.266;24.944;2023-05-21T02:47:59;99240.00;;;16.43;100.00
7376;BME280;3728;42.266;24.944;2023-05-21T02:50:29;99240.25;;;16.38;100.00
7376;BME280;3728;42.266;24.944;2023-05-21T02:52:58;99240.16;;;16.35;100.00
7376;BME280;3728;42.266;24.944;2023-05-21T02:55:26;99244.47;;;16.24;100.00
7376;BME280;3728;42.266;24.944;2023-05-21T02:57:54;99247.53;;;16.26;100.00
7376;BME280;3728;42.266;24.944;2023-05-21T03:00:21;99249.75;;;16.24;100.00
7376;BME280;3728;42.266;24.944;2023-05-21T03:02:49;99244.97;;;16.14;100.00
7376;BME280;3728;42.266;24.944;2023-05-21T03:05:16;99238.84;;;16.10;100.00
7376;BME280;3728;42.266;24.944;2023-05-21T03:07:44;99232.88;;;16.13;100.00
7376;BME280;3728;42.266;24.944;2023-05-21T03:10:13;99242.59;;;16.24;100.00
7376;BME280;3728;42.266;24.944;2023-05-21T03:12:41;99241.81;;;16.24;100.00
7376;BME280;3728;42.266;24.944;2023-05-21T03:15:10;99236.13;;;16.22;100.00
7376;BME280;3728;42.266;24.944;2023-05-21T03:17:40;99237.09;;;16.33;100.00
7376;BME280;3728;42.266;24.944;2023-05-21T03:20:10;99251.72;;;16.27;100.00
7376;BME280;3728;42.266;24.944;2023-05-21T03:22:42;99245.91;;;16.21;100.00
7376;BME280;3728;42.266;24.944;2023-05-21T03:25:11;99246.53;;;16.50;100.00
7376;BME280;3728;42.266;24.944;2023-05-21T03:27:39;99234.31;;;16.26;100.00
7376;BME280;3728;42.266;24.944;2023-05-21T03:30:20;99245.28;;;16.43;100.00
7376;BME280;3728;42.266;24.944;2023-05-21T03:33:07;99248.13;;;16.19;100.00
7376;BME280;3728;42.266;24.944;2023-05-21T03:35:36;99246.91;;;16.32;100.00
7376;BME280;3728;42.266;24.944;2023-05-21T03:38:04;99242.97;;;16.58;100.00
7376;BME280;3728;42.266;24.944;2023-05-21T03:40:33;99246.41;;;16.77;100.00
7376;BME280;3728;42.266;24.944;2023-05-21T03:43:00;99246.47;;;16.46;100.00
7376;BME280;3728;42.266;24.944;2023-05-21T03:45:28;99251.66;;;16.42;100.00
7376;BME280;3728;42.266;24.944;2023-05-21T03:48:18;99250.16;;;16.41;100.00
7376;BME280;3728;42.266;24.944;2023-05-21T03:50:46;99258.50;;;16.43;100.00
7376;BME280;3728;42.266;24.944;2023-05-21T03:53:13;99252.78;;;16.57;100.00
7376;BME280;3728;42.266;24.944;2023-05-21T03:55:41;99248.66;;;16.44;100.00
7376;BME280;3728;42.266;24.944;2023-05-21T03:58:09;99249.72;;;16.39;100.00
7376;BME280;3728;42.266;24.944;2023-05-21T04:00:37;99250.59;;;16.28;100.00
7376;BME280;3728;42.266;24.944;2023-05-21T04:03:05;99244.94;;;16.45;100.00
7376;BME280;3728;42.266;24.944;2023-05-21T04:05:33;99249.13;;;16.46;100.00
7376;BME280;3728;42.266;24.944;2023-05-21T04:08:01;99251.13;;;16.68;100.00
7376;BME280;3728;42.266;24.944;2023-05-21T04:10:28;99248.59;;;16.56;100.00
7376;BME280;3728;42.266;24.944;2023-05-21T04:12:56;99247.56;;;16.61;100.00
7376;BME280;3728;42.266;24.944;2023-05-21T04:15:25;99246.09;;;16.63;100.00
7376;BME280;3728;42.266;24.944;2023-05-21T04:17:54;99242.16;;;16.73;100.00
7376;BME280;3728;42.266;24.944;2023-05-21T04:20:22;99251.94;;;16.72;100.00
7376;BME280;3728;42.266;24.944;2023-05-21T04:22:50;99245.03;;;16.83;100.00
7376;BME280;3728;42.266;24.944;2023-05-21T04:25:17;99248.38;;;16.99;100.00
7376;BME280;3728;42.266;24.944;2023-05-21T04:27:47;99252.63;;;17.04;100.00
7376;BME280;3728;42.266;24.944;2023-05-21T04:30:16;99259.84;;;17.07;100.00
7376;BME280;3728;42.266;24.944;2023-05-21T04:32:45;99262.19;;;17.31;100.00
7376;BME280;3728;42.266;24.944;2023-05-21T04:35:13;99268.94;;;17.48;100.00
7376;BME280;3728;42.266;24.944;2023-05-21T04:37:41;99263.09;;;17.39;100.00
7376;BME280;3728;42.266;24.944;2023-05-21T04:40:12;99262.31;;;17.57;100.00
7376;BME280;3728;42.266;24.944;2023-05-21T04:42:50;99256.69;;;17.40;100.00
7376;BME280;3728;42.266;24.944;2023-05-21T04:45:20;99246.94;;;17.25;100.00
7376;BME280;3728;42.266;24.944;2023-05-21T04:47:51;99247.22;;;17.20;100.00
7376;BME280;3728;42.266;24.944;2023-05-21T04:50:19;99248.50;;;17.06;100.00
7376;BME280;3728;42.266;24.944;2023-05-21T04:52:47;99254.00;;;17.17;100.00
7376;BME280;3728;42.266;24.944;2023-05-21T04:55:17;99262.00;;;17.21;100.00
7376;BME280;3728;42.266;24.944;2023-05-21T04:57:45;99258.81;;;17.12;100.00
7376;BME280;3728;42.266;24.944;2023-05-21T05:00:13;99265.69;;;17.16;100.00
7376;BME280;3728;42.266;24.944;2023-05-21T05:02:44;99268.13;;;17.25;100.00
7376;BME280;3728;42.266;24.944;2023-05-21T05:05:11;99271.41;;;17.18;100.00
7376;BME280;3728;42.266;24.944;2023-05-21T05:07:39;99266.53;;;17.01;100.00
7376;BME280;3728;42.266;24.944;2023-05-21T05:10:07;99273.69;;;17.20;100.00
7376;BME280;3728;42.266;24.944;2023-05-21T05:12:35;99279.59;;;16.94;100.00
7376;BME280;3728;42.266;24.944;2023-05-21T05:15:03;99274.81;;;16.99;100.00
7376;BME280;3728;42.266;24.944;2023-05-21T05:17:32;99266.75;;;17.12;100.00
7376;BME280;3728;42.266;24.944;2023-05-21T05:20:00;99258.25;;;17.02;100.00
7376;BME280;3728;42.266;24.944;2023-05-21T05:22:27;99261.44;;;16.92;100.00
7376;BME280;3728;42.266;24.944;2023-05-21T05:24:55;99260.41;;;16.97;100.00
7376;BME280;3728;42.266;24.944;2023-05-21T05:27:26;99258.16;;;17.37;100.00
7376;BME280;3728;42.266;24.944;2023-05-21T05:29:53;99264.72;;;17.24;100.00
7376;BME280;3728;42.266;24.944;2023-05-21T05:32:21;99267.16;;;17.33;100.00
7376;BME280;3728;42.266;24.944;2023-05-21T05:34:49;99264.34;;;17.87;100.00
7376;BME280;3728;42.266;24.944;2023-05-21T05:37:16;99260.94;;;18.09;100.00
7376;BME280;3728;42.266;24.944;2023-05-21T05:39:44;99268.19;;;17.89;100.00
7376;BME280;3728;42.266;24.944;2023-05-21T05:42:12;99275.66;;;18.06;100.00
7376;BME280;3728;42.266;24.944;2023-05-21T05:44:40;99275.34;;;18.11;100.00
7376;BME280;3728;42.266;24.944;2023-05-21T05:47:07;99279.47;;;17.86;100.00
7376;BME280;3728;42.266;24.944;2023-05-21T05:49:37;99275.19;;;18.01;100.00
7376;BME280;3728;42.266;24.944;2023-05-21T05:52:05;99286.97;;;18.03;100.00
7376;BME280;3728;42.266;24.944;2023-05-21T05:54:32;99280.69;;;18.64;100.00
7376;BME280;3728;42.266;24.944;2023-05-21T05:57:00;99284.66;;;18.77;98.71
7376;BME280;3728;42.266;24.944;2023-05-21T05:59:28;99275.19;;;18.50;100.00
7376;BME280;3728;42.266;24.944;2023-05-21T06:01:59;99280.16;;;18.28;100.00
7376;BME280;3728;42.266;24.944;2023-05-21T06:04:27;99275.78;;;18.13;100.00
7376;BME280;3728;42.266;24.944;2023-05-21T06:06:56;99279.59;;;18.16;100.00
7376;BME280;3728;42.266;24.944;2023-05-21T06:09:24;99281.63;;;18.26;100.00
7376;BME280;3728;42.266;24.944;2023-05-21T06:11:51;99279.09;;;18.33;100.00
7376;BME280;3728;42.266;24.944;2023-05-21T06:14:19;99277.91;;;18.30;100.00
7376;BME280;3728;42.266;24.944;2023-05-21T06:16:47;99279.84;;;18.33;100.00
7376;BME280;3728;42.266;24.944;2023-05-21T06:19:15;99275.47;;;18.44;100.00
7376;BME280;3728;42.266;24.944;2023-05-21T06:21:42;99275.78;;;18.66;100.00
7376;BME280;3728;42.266;24.944;2023-05-21T06:24:10;99276.16;;;18.94;98.02
7376;BME280;3728;42.266;24.944;2023-05-21T06:26:38;99277.31;;;18.96;96.53
7376;BME280;3728;42.266;24.944;2023-05-21T06:29:06;99282.06;;;19.10;93.32
7376;BME280;3728;42.266;24.944;2023-05-21T06:31:34;99277.09;;;19.38;89.49
7376;BME280;3728;42.266;24.944;2023-05-21T06:34:02;99285.59;;;19.21;92.17
7376;BME280;3728;42.266;24.944;2023-05-21T06:36:31;99280.75;;;19.30;92.48
7376;BME280;3728;42.266;24.944;2023-05-21T06:38:58;99283.19;;;19.42;92.90
7376;BME280;3728;42.266;24.944;2023-05-21T06:41:26;99281.88;;;19.62;92.61
7376;BME280;3728;42.266;24.944;2023-05-21T06:43:57;99285.75;;;19.72;92.69
7376;BME280;3728;42.266;24.944;2023-05-21T06:46:40;99290.41;;;20.26;92.08
7376;BME280;3728;42.266;24.944;2023-05-21T06:49:10;99289.31;;;19.87;93.16
7376;BME280;3728;42.266;24.944;2023-05-21T06:51:41;99285.31;;;19.63;95.69
7376;BME280;3728;42.266;24.944;2023-05-21T06:54:10;99284.94;;;19.64;96.23
7376;BME280;3728;42.266;24.944;2023-05-21T06:56:39;99283.81;;;19.65;96.43
7376;BME280;3728;42.266;24.944;2023-05-21T06:59:07;99285.22;;;19.96;95.30
7376;BME280;3728;42.266;24.944;2023-05-21T07:01:36;99281.78;;;19.96;96.61
7376;BME280;3728;42.266;24.944;2023-05-21T07:04:09;99294.88;;;20.15;92.64
7376;BME280;3728;42.266;24.944;2023-05-21T07:06:38;99296.41;;;20.19;92.95
7376;BME280;3728;42.266;24.944;2023-05-21T07:09:07;99295.94;;;20.07;93.30
7376;BME280;3728;42.266;24.944;2023-05-21T07:11:35;99294.16;;;20.21;91.13
7376;BME280;3728;42.266;24.944;2023-05-21T07:14:03;99296.78;;;19.74;96.08
7376;BME280;3728;42.266;24.944;2023-05-21T07:16:33;99296.75;;;19.70;97.97
7376;BME280;3728;42.266;24.944;2023-05-21T07:19:01;99297.41;;;20.01;95.88
7376;BME280;3728;42.266;24.944;2023-05-21T07:21:29;99296.09;;;19.81;95.76
7376;BME280;3728;42.266;24.944;2023-05-21T07:23:58;99299.88;;;19.79;96.51
7376;BME280;3728;42.266;24.944;2023-05-21T07:26:26;99306.81;;;20.35;90.09
7376;BME280;3728;42.266;24.944;2023-05-21T07:28:54;99297.09;;;20.09;92.72
7376;BME280;3728;42.266;24.944;2023-05-21T07:31:21;99296.81;;;20.21;90.11
7376;BME280;3728;42.266;24.944;2023-05-21T07:33:51;99296.50;;;20.26;89.85
7376;BME280;3728;42.266;24.944;2023-05-21T07:36:25;99300.69;;;20.27;89.69
7376;BME280;3728;42.266;24.944;2023-05-21T07:38:53;99307.53;;;19.85;91.66
7376;BME280;3728;42.266;24.944;2023-05-21T07:41:21;99305.91;;;20.17;90.13
7376;BME280;3728;42.266;24.944;2023-05-21T07:43:49;99304.09;;;20.24;89.06
7376;BME280;3728;42.266;24.944;2023-05-21T07:46:18;99310.88;;;20.18;89.45
7376;BME280;3728;42.266;24.944;2023-05-21T07:48:51;99305.84;;;20.57;88.69
7376;BME280;3728;42.266;24.944;2023-05-21T07:51:18;99312.00;;;20.72;83.85
7376;BME280;3728;42.266;24.944;2023-05-21T07:53:47;99309.69;;;20.63;83.16
7376;BME280;3728;42.266;24.944;2023-05-21T07:56:17;99309.41;;;20.28;85.93
7376;BME280;3728;42.266;24.944;2023-05-21T07:58:45;99309.88;;;20.37;84.21
7376;BME280;3728;42.266;24.944;2023-05-21T08:01:14;99306.69;;;20.21;84.58
7376;BME280;3728;42.266;24.944;2023-05-21T08:03:42;99309.94;;;20.44;84.01
7376;BME280;3728;42.266;24.944;2023-05-21T08:06:10;99305.25;;;20.30;83.96
7376;BME280;3728;42.266;24.944;2023-05-21T08:08:39;99305.91;;;20.71;80.88
7376;BME280;3728;42.266;24.944;2023-05-21T08:11:07;99305.97;;;20.78;80.04
7376;BME280;3728;42.266;24.944;2023-05-21T08:13:35;99303.25;;;20.68;81.07
7376;BME280;3728;42.266;24.944;2023-05-21T08:16:05;99303.28;;;20.75;82.14
7376;BME280;3728;42.266;24.944;2023-05-21T08:18:33;99304.06;;;20.82;78.99
7376;BME280;3728;42.266;24.944;2023-05-21T08:21:00;99298.00;;;20.85;77.69
7376;BME280;3728;42.266;24.944;2023-05-21T08:23:28;99310.44;;;20.64;81.01
7376;BME280;3728;42.266;24.944;2023-05-21T08:25:57;99301.09;;;20.94;77.37
7376;BME280;3728;42.266;24.944;2023-05-21T08:28:25;99299.69;;;21.18;77.79
7376;BME280;3728;42.266;24.944;2023-05-21T08:31:17;99303.06;;;21.04;75.72
7376;BME280;3728;42.266;24.944;2023-05-21T08:33:50;99298.78;;;20.89;76.65
7376;BME280;3728;42.266;24.944;2023-05-21T08:36:27;99300.25;;;20.76;78.92
7376;BME280;3728;42.266;24.944;2023-05-21T08:39:00;99295.78;;;21.01;80.49
7376;BME280;3728;42.266;24.944;2023-05-21T08:41:34;99301.31;;;21.40;76.75
7376;BME280;3728;42.266;24.944;2023-05-21T08:44:10;99298.28;;;21.49;73.55
7376;BME280;3728;42.266;24.944;2023-05-21T08:46:39;99306.69;;;21.68;70.86
7376;BME280;3728;42.266;24.944;2023-05-21T08:49:11;99298.34;;;21.84;71.77
7376;BME280;3728;42.266;24.944;2023-05-21T08:51:40;99300.63;;;21.82;72.48
7376;BME280;3728;42.266;24.944;2023-05-21T08:54:09;99294.94;;;22.12;69.19
7376;BME280;3728;42.266;24.944;2023-05-21T08:56:40;99296.09;;;21.97;69.87
7376;BME280;3728;42.266;24.944;2023-05-21T08:59:16;99299.47;;;21.83;71.22
7376;BME280;3728;42.266;24.944;2023-05-21T09:01:45;99299.13;;;22.20;69.43
7376;BME280;3728;42.266;24.944;2023-05-21T09:04:24;99302.56;;;21.96;68.96
7376;BME280;3728;42.266;24.944;2023-05-21T09:06:54;99296.44;;;22.09;64.58
7376;BME280;3728;42.266;24.944;2023-05-21T09:10:07;99298.38;;;22.05;63.83
7376;BME280;3728;42.266;24.944;2023-05-21T09:12:39;99298.75;;;22.07;64.33
7376;BME280;3728;42.266;24.944;2023-05-21T09:15:07;99290.00;;;22.10;63.59
7376;BME280;3728;42.266;24.944;2023-05-21T09:17:37;99294.94;;;22.05;63.09
7376;BME280;3728;42.266;24.944;2023-05-21T09:20:25;99296.47;;;22.13;63.64
7376;BME280;3728;42.266;24.944;2023-05-21T09:23:03;99305.59;;;22.22;67.66
7376;BME280;3728;42.266;24.944;2023-05-21T09:25:36;99302.19;;;22.25;67.68
7376;BME280;3728;42.266;24.944;2023-05-21T09:28:14;99299.13;;;22.02;68.50
7376;BME280;3728;42.266;24.944;2023-05-21T09:30:51;99296.44;;;22.02;65.65
7376;BME280;3728;42.266;24.944;2023-05-21T09:33:27;99302.91;;;22.47;63.86
7376;BME280;3728;42.266;24.944;2023-05-21T09:35:57;99307.47;;;22.64;61.30
7376;BME280;3728;42.266;24.944;2023-05-21T09:38:26;99304.44;;;22.66;60.23
7376;BME280;3728;42.266;24.944;2023-05-21T09:40:56;99300.22;;;22.61;62.34
7376;BME280;3728;42.266;24.944;2023-05-21T09:43:25;99300.59;;;22.60;63.23
7376;BME280;3728;42.266;24.944;2023-05-21T09:45:55;99296.81;;;22.50;61.44
7376;BME280;3728;42.266;24.944;2023-05-21T09:48:35;99304.47;;;22.37;62.86
7376;BME280;3728;42.266;24.944;2023-05-21T09:51:14;99302.19;;;22.11;59.15
7376;BME280;3728;42.266;24.944;2023-05-21T09:56:25;99305.22;;;21.92;61.54
7376;BME280;3728;42.266;24.944;2023-05-21T09:58:59;99301.78;;;22.09;60.37
7376;BME280;3728;42.266;24.944;2023-05-21T10:01:31;99303.72;;;22.02;60.00
7376;BME280;3728;42.266;24.944;2023-05-21T10:04:06;99299.53;;;22.18;60.81
7376;BME280;3728;42.266;24.944;2023-05-21T10:06:41;99296.81;;;22.54;60.10
7376;BME280;3728;42.266;24.944;2023-05-21T10:09:14;99296.69;;;22.99;59.24
7376;BME280;3728;42.266;24.944;2023-05-21T10:11:46;99308.13;;;23.07;58.28
7376;BME280;3728;42.266;24.944;2023-05-21T10:14:22;99303.41;;;23.32;53.85
7376;BME280;3728;42.266;24.944;2023-05-21T10:16:53;99295.84;;;23.24;54.96
7376;BME280;3728;42.266;24.944;2023-05-21T10:19:21;99299.19;;;23.42;54.18
7376;BME280;3728;42.266;24.944;2023-05-21T10:21:53;99302.81;;;23.76;48.83
7376;BME280;3728;42.266;24.944;2023-05-21T10:24:23;99304.00;;;23.71;51.50
7376;BME280;3728;42.266;24.944;2023-05-21T10:26:51;99308.34;;;24.03;49.22
7376;BME280;3728;42.266;24.944;2023-05-21T10:29:19;99302.78;;;23.83;48.75
7376;BME280;3728;42.266;24.944;2023-05-21T10:31:51;99306.09;;;23.98;51.43
7376;BME280;3728;42.266;24.944;2023-05-21T10:34:20;99297.78;;;23.85;50.35
7376;BME280;3728;42.266;24.944;2023-05-21T10:36:51;99293.41;;;23.57;50.49
7376;BME280;3728;42.266;24.944;2023-05-21T10:39:22;99293.00;;;23.55;52.55
7376;BME280;3728;42.266;24.944;2023-05-21T10:45:22;99303.19;;;23.78;48.83
7376;BME280;3728;42.266;24.944;2023-05-21T10:59:45;99299.38;;;23.72;49.98
7376;BME280;3728;42.266;24.944;2023-05-21T11:02:14;99289.97;;;23.53;51.19
7376;BME280;3728;42.266;24.944;2023-05-21T11:04:45;99291.47;;;23.58;51.19
7376;BME280;3728;42.266;24.944;2023-05-21T11:07:21;99296.47;;;23.52;49.38
7376;BME280;3728;42.266;24.944;2023-05-21T11:09:50;99302.78;;;23.79;49.63
7376;BME280;3728;42.266;24.944;2023-05-21T11:12:19;99293.06;;;24.03;52.78
7376;BME280;3728;42.266;24.944;2023-05-21T11:14:57;99293.00;;;24.14;56.37
7376;BME280;3728;42.266;24.944;2023-05-21T11:17:39;99287.03;;;23.89;54.33
7376;BME280;3728;42.266;24.944;2023-05-21T11:20:11;99294.16;;;23.54;54.44
7376;BME280;3728;42.266;24.944;2023-05-21T11:22:44;99298.09;;;23.29;55.61
7376;BME280;3728;42.266;24.944;2023-05-21T11:25:12;99294.03;;;23.03;55.76
7376;BME280;3728;42.266;24.944;2023-05-21T11:27:42;99304.81;;;22.64;55.78
7376;BME280;3728;42.266;24.944;2023-05-21T11:30:18;99290.00;;;22.28;57.18
7376;BME280;3728;42.266;24.944;2023-05-21T11:38:20;99289.16;;;21.60;63.30
7376;BME280;3728;42.266;24.944;2023-05-21T11:40:52;99284.59;;;21.61;65.01
7376;BME280;3728;42.266;24.944;2023-05-21T11:43:21;99286.88;;;21.62;59.70
7376;BME280;3728;42.266;24.944;2023-05-21T11:45:51;99290.31;;;21.66;59.76
7376;BME280;3728;42.266;24.944;2023-05-21T11:48:24;99277.00;;;21.66;61.05
7376;BME280;3728;42.266;24.944;2023-05-21T11:50:57;99284.63;;;21.78;64.34
7376;BME280;3728;42.266;24.944;2023-05-21T11:53:24;99284.56;;;21.54;65.08
7376;BME280;3728;42.266;24.944;2023-05-21T11:55:55;99279.56;;;21.28;68.67
7376;BME280;3728;42.266;24.944;2023-05-21T11:58:43;99281.47;;;21.24;69.30
7376;BME280;3728;42.266;24.944;2023-05-21T12:01:21;99287.13;;;21.15;69.87
7376;BME280;3728;42.266;24.944;2023-05-21T12:03:52;99288.75;;;21.41;68.38
7376;BME280;3728;42.266;24.944;2023-05-21T12:06:25;99277.63;;;21.18;70.46
7376;BME280;3728;42.266;24.944;2023-05-21T12:08:53;99276.09;;;21.09;70.36
7376;BME280;3728;42.266;24.944;2023-05-21T12:11:24;99271.16;;;21.19;71.11
7376;BME280;3728;42.266;24.944;2023-05-21T12:13:54;99275.03;;;21.42;70.60
7376;BME280;3728;42.266;24.944;2023-05-21T12:16:22;99267.84;;;21.64;68.90
7376;BME280;3728;42.266;24.944;2023-05-21T12:18:50;99259.09;;;22.27;66.03
7376;BME280;3728;42.266;24.944;2023-05-21T12:21:18;99269.78;;;22.16;65.82
7376;BME280;3728;42.266;24.944;2023-05-21T12:23:46;99267.81;;;22.66;62.76
7376;BME280;3728;42.266;24.944;2023-05-21T12:26:14;99261.75;;;22.44;61.01
7376;BME280;3728;42.266;24.944;2023-05-21T12:28:42;99274.28;;;22.72;61.34
7376;BME280;3728;42.266;24.944;2023-05-21T12:31:14;99272.97;;;23.19;56.90
7376;BME280;3728;42.266;24.944;2023-05-21T12:33:46;99276.13;;;22.93;59.38
7376;BME280;3728;42.266;24.944;2023-05-21T12:36:29;99272.59;;;23.17;59.24
7376;BME280;3728;42.266;24.944;2023-05-21T12:38:58;99281.16;;;23.56;60.26
7376;BME280;3728;42.266;24.944;2023-05-21T12:41:28;99285.28;;;24.19;55.20
7376;BME280;3728;42.266;24.944;2023-05-21T12:43:56;99285.97;;;24.30;55.38
7376;BME280;3728;42.266;24.944;2023-05-21T12:46:23;99279.44;;;24.69;52.84
7376;BME280;3728;42.266;24.944;2023-05-21T12:48:53;99276.75;;;25.06;52.91
7376;BME280;3728;42.266;24.944;2023-05-21T12:51:21;99264.69;;;25.21;50.69
7376;BME280;3728;42.266;24.944;2023-05-21T12:53:50;99270.31;;;25.00;49.13
7376;BME280;3728;42.266;24.944;2023-05-21T12:56:18;99264.84;;;24.73;48.83
7376;BME280;3728;42.266;24.944;2023-05-21T12:58:48;99264.97;;;24.63;50.36
7376;BME280;3728;42.266;24.944;2023-05-21T13:01:16;99260.31;;;25.04;45.97
7376;BME280;3728;42.266;24.944;2023-05-21T13:03:47;99260.44;;;25.24;45.69
7376;BME280;3728;42.266;24.944;2023-05-21T13:06:16;99260.59;;;25.13;47.73
7376;BME280;3728;42.266;24.944;2023-05-21T13:08:43;99267.59;;;25.03;45.17
7376;BME280;3728;42.266;24.944;2023-05-21T13:11:11;99274.41;;;24.74;45.43
7376;BME280;3728;42.266;24.944;2023-05-21T13:13:39;99274.22;;;24.58;46.49
7376;BME280;3728;42.266;24.944;2023-05-21T13:16:06;99272.47;;;24.41;47.48
7376;BME280;3728;42.266;24.944;2023-05-21T13:18:36;99272.47;;;24.78;48.44
7376;BME280;3728;42.266;24.944;2023-05-21T13:21:04;99267.44;;;24.84;49.43
7376;BME280;3728;42.266;24.944;2023-05-21T13:23:32;99263.38;;;24.69;47.62
7376;BME280;3728;42.266;24.944;2023-05-21T13:26:00;99265.94;;;24.45;48.75
7376;BME280;3728;42.266;24.944;2023-05-21T13:28:27;99259.72;;;24.52;49.21
7376;BME280;3728;42.266;24.944;2023-05-21T13:30:55;99246.97;;;25.00;46.84
7376;BME280;3728;42.266;24.944;2023-05-21T13:33:22;99248.16;;;24.62;48.03
7376;BME280;3728;42.266;24.944;2023-05-21T13:35:50;99253.22;;;24.53;47.44
7376;BME280;3728;42.266;24.944;2023-05-21T13:38:18;99245.69;;;24.44;48.41
7376;BME280;3728;42.266;24.944;2023-05-21T13:40:45;99244.69;;;24.28;49.40
7376;BME280;3728;42.266;24.944;2023-05-21T13:43:13;99239.84;;;24.16;50.72
7376;BME280;3728;42.266;24.944;2023-05-21T13:45:40;99257.84;;;24.12;51.90
7376;BME280;3728;42.266;24.944;2023-05-21T13:48:09;99248.63;;;24.16;49.62
7376;BME280;3728;42.266;24.944;2023-05-21T13:50:37;99250.34;;;23.93;51.31